sensor_id;sensor_type;location;lat;lon;timestamp;temperature;humidity
62573;DHT22;48626;51.678;5.806;2022-07-17T00:00:50;15.50;67.90
62573;DHT22;48626;51.678;5.806;2022-07-17T00:03:17;15.50;68.20
62573;DHT22;48626;51.678;5.806;2022-07-17T00:05:43;15.40;68.20
62573;DHT22;48626;51.678;5.806;2022-07-17T00:08:10;15.40;68.30
62573;DHT22;48626;51.678;5.806;2022-07-17T00:10:39;15.30;68.50
62573;DHT22;48626;51.678;5.806;2022-07-17T00:13:05;15.30;68.70
62573;DHT22;48626;51.678;5.806;2022-07-17T00:15:31;15.20;68.70
62573;DHT22;48626;51.678;5.806;2022-07-17T00:17:57;15.10;68.90
62573;DHT22;48626;51.678;5.806;2022-07-17T00:20:22;15.10;69.10
62573;DHT22;48626;51.678;5.806;2022-07-17T00:22:54;15.00;69.30
62573;DHT22;48626;51.678;5.806;2022-07-17T00:25:24;15.00;69.60
62573;DHT22;48626;51.678;5.806;2022-07-17T00:27:49;14.90;69.70
62573;DHT22;48626;51.678;5.806;2022-07-17T00:30:15;14.90;69.80
62573;DHT22;48626;51.678;5.806;2022-07-17T00:32:42;14.90;70.10
62573;DHT22;48626;51.678;5.806;2022-07-17T00:35:08;14.90;70.50
62573;DHT22;48626;51.678;5.806;2022-07-17T00:37:52;14.80;70.50
62573;DHT22;48626;51.678;5.806;2022-07-17T00:40:23;14.80;70.50
62573;DHT22;48626;51.678;5.806;2022-07-17T00:42:50;14.80;70.60
62573;DHT22;48626;51.678;5.806;2022-07-17T00:45:16;14.70;70.60
62573;DHT22;48626;51.678;5.806;2022-07-17T00:47:52;14.70;71.70
62573;DHT22;48626;51.678;5.806;2022-07-17T00:50:19;14.70;71.00
62573;DHT22;48626;51.678;5.806;2022-07-17T00:52:45;14.60;70.90
62573;DHT22;48626;51.678;5.806;2022-07-17T00:55:12;14.50;71.10
62573;DHT22;48626;51.678;5.806;2022-07-17T00:57:40;14.50;71.50
62573;DHT22;48626;51.678;5.806;2022-07-17T01:00:06;14.50;71.70
62573;DHT22;48626;51.678;5.806;2022-07-17T01:02:36;14.50;71.80
62573;DHT22;48626;51.678;5.806;2022-07-17T01:05:03;14.40;71.70
62573;DHT22;48626;51.678;5.806;2022-07-17T01:07:29;14.40;72.00
62573;DHT22;48626;51.678;5.806;2022-07-17T01:09:55;14.40;72.10
62573;DHT22;48626;51.678;5.806;2022-07-17T01:12:21;14.30;72.00
62573;DHT22;48626;51.678;5.806;2022-07-17T01:14:47;14.30;72.40
62573;DHT22;48626;51.678;5.806;2022-07-17T01:17:13;14.30;72.10
62573;DHT22;48626;51.678;5.806;2022-07-17T01:19:40;14.30;72.40
62573;DHT22;48626;51.678;5.806;2022-07-17T01:22:06;14.20;72.50
62573;DHT22;48626;51.678;5.806;2022-07-17T01:24:31;14.20;72.70
62573;DHT22;48626;51.678;5.806;2022-07-17T01:26:57;14.20;72.80
62573;DHT22;48626;51.678;5.806;2022-07-17T01:29:23;14.20;72.90
62573;DHT22;48626;51.678;5.806;2022-07-17T01:31:49;14.10;72.90
62573;DHT22;48626;51.678;5.806;2022-07-17T01:34:15;14.10;73.10
62573;DHT22;48626;51.678;5.806;2022-07-17T01:36:41;14.10;73.30
62573;DHT22;48626;51.678;5.806;2022-07-17T01:39:07;14.00;73.40
62573;DHT22;48626;51.678;5.806;2022-07-17T01:41:33;14.00;73.50
62573;DHT22;48626;51.678;5.806;2022-07-17T01:43:59;14.00;73.70
62573;DHT22;48626;51.678;5.806;2022-07-17T01:46:25;13.90;73.70
62573;DHT22;48626;51.678;5.806;2022-07-17T01:48:50;13.90;73.70
62573;DHT22;48626;51.678;5.806;2022-07-17T01:51:16;13.90;73.90
62573;DHT22;48626;51.678;5.806;2022-07-17T01:53:42;13.90;74.00
62573;DHT22;48626;51.678;5.806;2022-07-17T01:56:08;13.90;74.20
62573;DHT22;48626;51.678;5.806;2022-07-17T01:58:34;13.80;74.20
62573;DHT22;48626;51.678;5.806;2022-07-17T02:01:00;13.80;74.40
62573;DHT22;48626;51.678;5.806;2022-07-17T02:03:25;13.70;74.30
62573;DHT22;48626;51.678;5.806;2022-07-17T02:05:51;13.70;74.50
62573;DHT22;48626;51.678;5.806;2022-07-17T02:08:17;13.70;74.80
62573;DHT22;48626;51.678;5.806;2022-07-17T02:10:42;13.60;75.20
62573;DHT22;48626;51.678;5.806;2022-07-17T02:13:08;13.60;75.40
62573;DHT22;48626;51.678;5.806;2022-07-17T02:15:34;13.60;75.50
62573;DHT22;48626;51.678;5.806;2022-07-17T02:17:59;13.50;75.80
62573;DHT22;48626;51.678;5.806;2022-07-17T02:20:25;13.50;75.90
62573;DHT22;48626;51.678;5.806;2022-07-17T02:22:51;13.40;76.10
62573;DHT22;48626;51.678;5.806;2022-07-17T02:25:17;13.40;77.40
62573;DHT22;48626;51.678;5.806;2022-07-17T02:27:43;13.30;76.70
62573;DHT22;48626;51.678;5.806;2022-07-17T02:30:12;13.30;76.70
62573;DHT22;48626;51.678;5.806;2022-07-17T02:32:38;13.30;76.90
62573;DHT22;48626;51.678;5.806;2022-07-17T02:35:05;13.30;76.90
62573;DHT22;48626;51.678;5.806;2022-07-17T02:37:32;13.20;77.10
62573;DHT22;48626;51.678;5.806;2022-07-17T02:39:57;13.20;77.30
62573;DHT22;48626;51.678;5.806;2022-07-17T02:42:26;13.20;77.20
62573;DHT22;48626;51.678;5.806;2022-07-17T02:44:53;13.10;77.20
62573;DHT22;48626;51.678;5.806;2022-07-17T02:47:27;13.10;77.30
62573;DHT22;48626;51.678;5.806;2022-07-17T02:49:53;13.10;77.50
62573;DHT22;48626;51.678;5.806;2022-07-17T02:52:19;13.10;77.50
62573;DHT22;48626;51.678;5.806;2022-07-17T02:54:45;13.10;77.50
62573;DHT22;48626;51.678;5.806;2022-07-17T02:57:11;13.10;77.80
62573;DHT22;48626;51.678;5.806;2022-07-17T02:59:38;13.10;77.80
62573;DHT22;48626;51.678;5.806;2022-07-17T03:02:03;13.10;78.00
62573;DHT22;48626;51.678;5.806;2022-07-17T03:04:29;13.00;78.00
62573;DHT22;48626;51.678;5.806;2022-07-17T03:06:55;13.00;78.10
62573;DHT22;48626;51.678;5.806;2022-07-17T03:09:21;13.00;78.10
62573;DHT22;48626;51.678;5.806;2022-07-17T03:11:46;13.00;78.10
62573;DHT22;48626;51.678;5.806;2022-07-17T03:14:12;13.00;78.10
62573;DHT22;48626;51.678;5.806;2022-07-17T03:16:37;13.00;78.30
62573;DHT22;48626;51.678;5.806;2022-07-17T03:19:03;12.90;78.30
62573;DHT22;48626;51.678;5.806;2022-07-17T03:21:29;12.80;78.40
62573;DHT22;48626;51.678;5.806;2022-07-17T03:23:54;12.80;78.70
62573;DHT22;48626;51.678;5.806;2022-07-17T03:26:20;12.80;78.80
62573;DHT22;48626;51.678;5.806;2022-07-17T03:28:46;12.80;79.00
62573;DHT22;48626;51.678;5.806;2022-07-17T03:31:11;12.70;79.00
62573;DHT22;48626;51.678;5.806;2022-07-17T03:33:37;12.70;79.00
62573;DHT22;48626;51.678;5.806;2022-07-17T03:36:03;12.70;79.10
62573;DHT22;48626;51.678;5.806;2022-07-17T03:38:28;12.70;79.30
62573;DHT22;48626;51.678;5.806;2022-07-17T03:40:54;12.60;79.50
62573;DHT22;48626;51.678;5.806;2022-07-17T03:43:20;12.60;79.60
62573;DHT22;48626;51.678;5.806;2022-07-17T03:45:45;12.60;79.50
62573;DHT22;48626;51.678;5.806;2022-07-17T03:48:11;12.60;79.60
62573;DHT22;48626;51.678;5.806;2022-07-17T03:50:37;12.60;79.80
62573;DHT22;48626;51.678;5.806;2022-07-17T03:53:02;12.60;79.90
62573;DHT22;48626;51.678;5.806;2022-07-17T03:55:28;12.60;79.90
62573;DHT22;48626;51.678;5.806;2022-07-17T03:57:54;12.60;80.00
62573;DHT22;48626;51.678;5.806;2022-07-17T04:00:20;12.60;80.10
62573;DHT22;48626;51.678;5.806;2022-07-17T04:02:45;12.50;80.00
62573;DHT22;48626;51.678;5.806;2022-07-17T04:05:11;12.50;80.20
62573;DHT22;48626;51.678;5.806;2022-07-17T04:07:41;12.50;80.40
62573;DHT22;48626;51.678;5.806;2022-07-17T04:10:08;12.60;80.70
62573;DHT22;48626;51.678;5.806;2022-07-17T04:12:35;12.60;80.70
62573;DHT22;48626;51.678;5.806;2022-07-17T04:15:01;12.60;81.10
62573;DHT22;48626;51.678;5.806;2022-07-17T04:17:27;12.60;81.20
62573;DHT22;48626;51.678;5.806;2022-07-17T04:19:53;12.60;81.10
62573;DHT22;48626;51.678;5.806;2022-07-17T04:22:19;12.60;81.50
62573;DHT22;48626;51.678;5.806;2022-07-17T04:24:45;12.60;81.40
62573;DHT22;48626;51.678;5.806;2022-07-17T04:27:11;12.60;81.20
62573;DHT22;48626;51.678;5.806;2022-07-17T04:29:37;12.60;80.80
62573;DHT22;48626;51.678;5.806;2022-07-17T04:32:03;12.60;80.90
62573;DHT22;48626;51.678;5.806;2022-07-17T04:34:29;12.60;81.00
62573;DHT22;48626;51.678;5.806;2022-07-17T04:36:55;12.60;81.00
62573;DHT22;48626;51.678;5.806;2022-07-17T04:39:21;12.60;81.10
62573;DHT22;48626;51.678;5.806;2022-07-17T04:41:48;12.60;81.10
62573;DHT22;48626;51.678;5.806;2022-07-17T04:44:14;12.70;81.10
62573;DHT22;48626;51.678;5.806;2022-07-17T04:46:39;12.70;81.40
62573;DHT22;48626;51.678;5.806;2022-07-17T04:49:05;12.80;81.50
62573;DHT22;48626;51.678;5.806;2022-07-17T04:51:31;12.80;81.60
62573;DHT22;48626;51.678;5.806;2022-07-17T04:53:56;12.80;81.90
62573;DHT22;48626;51.678;5.806;2022-07-17T04:56:22;12.90;82.10
62573;DHT22;48626;51.678;5.806;2022-07-17T04:58:47;12.90;82.40
62573;DHT22;48626;51.678;5.806;2022-07-17T05:01:13;12.90;82.50
62573;DHT22;48626;51.678;5.806;2022-07-17T05:03:39;12.90;82.40
62573;DHT22;48626;51.678;5.806;2022-07-17T05:06:04;12.90;82.90
62573;DHT22;48626;51.678;5.806;2022-07-17T05:08:31;13.00;82.90
62573;DHT22;48626;51.678;5.806;2022-07-17T05:10:56;13.10;82.90
62573;DHT22;48626;51.678;5.806;2022-07-17T05:13:22;13.10;82.90
62573;DHT22;48626;51.678;5.806;2022-07-17T05:15:48;13.20;83.70
62573;DHT22;48626;51.678;5.806;2022-07-17T05:18:14;13.20;82.60
62573;DHT22;48626;51.678;5.806;2022-07-17T05:20:40;13.30;82.80
62573;DHT22;48626;51.678;5.806;2022-07-17T05:23:06;13.40;82.40
62573;DHT22;48626;51.678;5.806;2022-07-17T05:25:32;13.50;82.50
62573;DHT22;48626;51.678;5.806;2022-07-17T05:27:58;13.60;82.70
62573;DHT22;48626;51.678;5.806;2022-07-17T05:30:24;13.70;82.70
62573;DHT22;48626;51.678;5.806;2022-07-17T05:32:49;13.80;82.30
62573;DHT22;48626;51.678;5.806;2022-07-17T05:35:15;14.00;82.10
62573;DHT22;48626;51.678;5.806;2022-07-17T05:37:41;14.20;81.90
62573;DHT22;48626;51.678;5.806;2022-07-17T05:40:07;14.30;81.50
62573;DHT22;48626;51.678;5.806;2022-07-17T05:42:33;14.40;81.20
62573;DHT22;48626;51.678;5.806;2022-07-17T05:44:59;14.60;81.20
62573;DHT22;48626;51.678;5.806;2022-07-17T05:47:25;14.70;80.60
62573;DHT22;48626;51.678;5.806;2022-07-17T05:49:50;14.80;80.30
62573;DHT22;48626;51.678;5.806;2022-07-17T05:52:16;14.90;79.90
62573;DHT22;48626;51.678;5.806;2022-07-17T05:54:42;15.00;79.30
62573;DHT22;48626;51.678;5.806;2022-07-17T05:57:08;15.10;79.10
62573;DHT22;48626;51.678;5.806;2022-07-17T05:59:34;15.20;79.20
62573;DHT22;48626;51.678;5.806;2022-07-17T06:02:00;15.40;78.70
62573;DHT22;48626;51.678;5.806;2022-07-17T06:04:25;15.50;78.30
62573;DHT22;48626;51.678;5.806;2022-07-17T06:06:51;15.60;77.90
62573;DHT22;48626;51.678;5.806;2022-07-17T06:09:17;15.70;77.80
62573;DHT22;48626;51.678;5.806;2022-07-17T06:11:42;15.90;77.20
62573;DHT22;48626;51.678;5.806;2022-07-17T06:14:08;16.00;75.80
62573;DHT22;48626;51.678;5.806;2022-07-17T06:16:34;16.10;75.50
62573;DHT22;48626;51.678;5.806;2022-07-17T06:18:59;16.20;75.20
62573;DHT22;48626;51.678;5.806;2022-07-17T06:21:27;16.30;74.60
62573;DHT22;48626;51.678;5.806;2022-07-17T06:23:53;16.40;73.60
62573;DHT22;48626;51.678;5.806;2022-07-17T06:26:18;16.50;73.30
62573;DHT22;48626;51.678;5.806;2022-07-17T06:28:44;16.70;73.00
62573;DHT22;48626;51.678;5.806;2022-07-17T06:31:10;16.70;72.80
62573;DHT22;48626;51.678;5.806;2022-07-17T06:33:36;16.80;72.00
62573;DHT22;48626;51.678;5.806;2022-07-17T06:36:02;16.90;70.80
62573;DHT22;48626;51.678;5.806;2022-07-17T06:38:28;17.00;71.40
62573;DHT22;48626;51.678;5.806;2022-07-17T06:40:54;17.10;70.40
62573;DHT22;48626;51.678;5.806;2022-07-17T06:43:19;17.10;70.10
62573;DHT22;48626;51.678;5.806;2022-07-17T06:45:45;17.20;70.20
62573;DHT22;48626;51.678;5.806;2022-07-17T06:48:11;17.30;70.00
62573;DHT22;48626;51.678;5.806;2022-07-17T06:50:37;17.40;69.50
62573;DHT22;48626;51.678;5.806;2022-07-17T06:53:02;17.50;69.60
62573;DHT22;48626;51.678;5.806;2022-07-17T06:55:28;17.60;69.20
62573;DHT22;48626;51.678;5.806;2022-07-17T06:57:54;17.70;68.90
62573;DHT22;48626;51.678;5.806;2022-07-17T07:00:20;17.80;69.00
62573;DHT22;48626;51.678;5.806;2022-07-17T07:02:45;17.90;68.40
62573;DHT22;48626;51.678;5.806;2022-07-17T07:05:11;18.00;67.70
62573;DHT22;48626;51.678;5.806;2022-07-17T07:07:37;18.10;67.60
62573;DHT22;48626;51.678;5.806;2022-07-17T07:10:03;18.20;67.40
62573;DHT22;48626;51.678;5.806;2022-07-17T07:12:29;18.30;67.00
62573;DHT22;48626;51.678;5.806;2022-07-17T07:14:56;18.40;66.70
62573;DHT22;48626;51.678;5.806;2022-07-17T07:17:21;18.60;66.30
62573;DHT22;48626;51.678;5.806;2022-07-17T07:19:47;18.70;66.00
62573;DHT22;48626;51.678;5.806;2022-07-17T07:22:13;18.70;65.00
62573;DHT22;48626;51.678;5.806;2022-07-17T07:24:38;18.90;64.40
62573;DHT22;48626;51.678;5.806;2022-07-17T07:27:04;19.00;63.20
62573;DHT22;48626;51.678;5.806;2022-07-17T07:29:30;19.10;63.70
62573;DHT22;48626;51.678;5.806;2022-07-17T07:31:55;19.20;63.00
62573;DHT22;48626;51.678;5.806;2022-07-17T07:34:21;19.30;62.20
62573;DHT22;48626;51.678;5.806;2022-07-17T07:36:46;19.30;62.00
62573;DHT22;48626;51.678;5.806;2022-07-17T07:39:12;19.50;62.00
62573;DHT22;48626;51.678;5.806;2022-07-17T07:41:38;19.50;61.20
62573;DHT22;48626;51.678;5.806;2022-07-17T07:44:03;19.60;61.40
62573;DHT22;48626;51.678;5.806;2022-07-17T07:46:29;19.70;60.90
62573;DHT22;48626;51.678;5.806;2022-07-17T07:48:55;19.80;60.80
62573;DHT22;48626;51.678;5.806;2022-07-17T07:51:20;19.90;60.60
62573;DHT22;48626;51.678;5.806;2022-07-17T07:53:46;20.00;59.80
62573;DHT22;48626;51.678;5.806;2022-07-17T07:56:12;20.10;60.00
62573;DHT22;48626;51.678;5.806;2022-07-17T07:58:38;20.20;59.00
62573;DHT22;48626;51.678;5.806;2022-07-17T08:01:03;20.20;58.50
62573;DHT22;48626;51.678;5.806;2022-07-17T08:03:29;20.20;58.20
62573;DHT22;48626;51.678;5.806;2022-07-17T08:05:55;20.20;58.70
62573;DHT22;48626;51.678;5.806;2022-07-17T08:08:20;20.40;58.60
62573;DHT22;48626;51.678;5.806;2022-07-17T08:10:46;20.50;58.60
62573;DHT22;48626;51.678;5.806;2022-07-17T08:13:12;20.60;57.40
62573;DHT22;48626;51.678;5.806;2022-07-17T08:15:38;20.60;55.60
62573;DHT22;48626;51.678;5.806;2022-07-17T08:18:03;20.70;56.80
62573;DHT22;48626;51.678;5.806;2022-07-17T08:20:29;20.80;56.30
62573;DHT22;48626;51.678;5.806;2022-07-17T08:22:55;20.80;55.70
62573;DHT22;48626;51.678;5.806;2022-07-17T08:25:21;21.00;55.70
62573;DHT22;48626;51.678;5.806;2022-07-17T08:27:47;21.20;54.80
62573;DHT22;48626;51.678;5.806;2022-07-17T08:30:13;21.40;54.30
62573;DHT22;48626;51.678;5.806;2022-07-17T08:32:40;21.40;53.30
62573;DHT22;48626;51.678;5.806;2022-07-17T08:35:07;21.50;54.90
62573;DHT22;48626;51.678;5.806;2022-07-17T08:40:18;21.70;54.50
62573;DHT22;48626;51.678;5.806;2022-07-17T08:42:45;21.80;53.40
62573;DHT22;48626;51.678;5.806;2022-07-17T08:45:12;21.90;54.10
62573;DHT22;48626;51.678;5.806;2022-07-17T08:47:38;22.00;54.20
62573;DHT22;48626;51.678;5.806;2022-07-17T08:50:04;22.00;54.20
62573;DHT22;48626;51.678;5.806;2022-07-17T08:52:30;22.20;54.00
62573;DHT22;48626;51.678;5.806;2022-07-17T08:54:57;22.40;52.60
62573;DHT22;48626;51.678;5.806;2022-07-17T08:57:22;22.40;50.90
62573;DHT22;48626;51.678;5.806;2022-07-17T08:59:48;22.30;50.80
62573;DHT22;48626;51.678;5.806;2022-07-17T09:02:14;22.20;50.60
62573;DHT22;48626;51.678;5.806;2022-07-17T09:04:40;22.40;51.90
62573;DHT22;48626;51.678;5.806;2022-07-17T09:07:06;22.60;50.20
62573;DHT22;48626;51.678;5.806;2022-07-17T09:09:32;22.70;49.70
62573;DHT22;48626;51.678;5.806;2022-07-17T09:12:02;22.80;49.60
62573;DHT22;48626;51.678;5.806;2022-07-17T09:14:38;22.90;48.60
62573;DHT22;48626;51.678;5.806;2022-07-17T09:17:05;23.00;49.00
62573;DHT22;48626;51.678;5.806;2022-07-17T09:19:36;23.00;49.80
62573;DHT22;48626;51.678;5.806;2022-07-17T09:22:23;23.10;50.30
62573;DHT22;48626;51.678;5.806;2022-07-17T09:24:55;23.30;50.00
62573;DHT22;48626;51.678;5.806;2022-07-17T09:29:55;23.40;48.20
62573;DHT22;48626;51.678;5.806;2022-07-17T09:32:22;23.40;48.90
62573;DHT22;48626;51.678;5.806;2022-07-17T09:34:50;23.50;49.90
62573;DHT22;48626;51.678;5.806;2022-07-17T09:37:16;23.70;49.40
62573;DHT22;48626;51.678;5.806;2022-07-17T09:39:42;23.90;49.20
62573;DHT22;48626;51.678;5.806;2022-07-17T09:42:09;23.90;48.60
62573;DHT22;48626;51.678;5.806;2022-07-17T09:44:35;24.00;47.70
62573;DHT22;48626;51.678;5.806;2022-07-17T09:47:03;24.00;48.00
62573;DHT22;48626;51.678;5.806;2022-07-17T09:49:29;24.00;44.90
62573;DHT22;48626;51.678;5.806;2022-07-17T09:51:55;24.10;46.20
62573;DHT22;48626;51.678;5.806;2022-07-17T09:54:22;24.20;45.80
62573;DHT22;48626;51.678;5.806;2022-07-17T09:56:51;24.20;46.40
62573;DHT22;48626;51.678;5.806;2022-07-17T09:59:18;24.30;46.30
62573;DHT22;48626;51.678;5.806;2022-07-17T10:01:45;24.40;45.50
62573;DHT22;48626;51.678;5.806;2022-07-17T10:04:15;24.50;45.30
62573;DHT22;48626;51.678;5.806;2022-07-17T10:06:44;24.60;45.40
62573;DHT22;48626;51.678;5.806;2022-07-17T10:09:10;24.70;45.70
62573;DHT22;48626;51.678;5.806;2022-07-17T10:11:40;24.50;43.80
62573;DHT22;48626;51.678;5.806;2022-07-17T10:14:09;24.60;44.50
62573;DHT22;48626;51.678;5.806;2022-07-17T10:16:37;24.60;42.80
62573;DHT22;48626;51.678;5.806;2022-07-17T10:19:21;24.60;44.50
62573;DHT22;48626;51.678;5.806;2022-07-17T10:21:56;24.70;42.00
62573;DHT22;48626;51.678;5.806;2022-07-17T10:24:22;25.00;44.20
62573;DHT22;48626;51.678;5.806;2022-07-17T10:26:48;25.40;43.80
62573;DHT22;48626;51.678;5.806;2022-07-17T10:29:29;25.40;42.60
62573;DHT22;48626;51.678;5.806;2022-07-17T10:31:56;25.70;44.50
62573;DHT22;48626;51.678;5.806;2022-07-17T10:34:44;25.70;43.60
62573;DHT22;48626;51.678;5.806;2022-07-17T10:37:38;26.00;44.40
62573;DHT22;48626;51.678;5.806;2022-07-17T10:48:12;26.50;40.60
62573;DHT22;48626;51.678;5.806;2022-07-17T10:50:49;26.90;41.00
62573;DHT22;48626;51.678;5.806;2022-07-17T10:53:21;26.90;38.30
62573;DHT22;48626;51.678;5.806;2022-07-17T10:55:51;26.90;39.00
62573;DHT22;48626;51.678;5.806;2022-07-17T10:58:30;27.00;39.80
62573;DHT22;48626;51.678;5.806;2022-07-17T11:01:14;27.30;40.10
62573;DHT22;48626;51.678;5.806;2022-07-17T11:03:55;27.70;42.10
62573;DHT22;48626;51.678;5.806;2022-07-17T11:06:32;27.90;37.80
62573;DHT22;48626;51.678;5.806;2022-07-17T11:09:10;28.00;39.30
62573;DHT22;48626;51.678;5.806;2022-07-17T11:14:28;28.30;41.50
62573;DHT22;48626;51.678;5.806;2022-07-17T11:17:01;28.60;36.20
62573;DHT22;48626;51.678;5.806;2022-07-17T11:19:38;28.70;38.10
62573;DHT22;48626;51.678;5.806;2022-07-17T11:22:07;28.50;34.90
62573;DHT22;48626;51.678;5.806;2022-07-17T11:24:47;28.20;36.10
62573;DHT22;48626;51.678;5.806;2022-07-17T11:27:24;28.80;42.60
62573;DHT22;48626;51.678;5.806;2022-07-17T11:29:50;29.40;40.80
62573;DHT22;48626;51.678;5.806;2022-07-17T11:32:17;30.00;43.10
62573;DHT22;48626;51.678;5.806;2022-07-17T11:34:42;29.90;36.10
62573;DHT22;48626;51.678;5.806;2022-07-17T11:37:09;30.00;39.00
62573;DHT22;48626;51.678;5.806;2022-07-17T11:39:43;30.50;38.30
62573;DHT22;48626;51.678;5.806;2022-07-17T11:42:13;30.80;37.60
62573;DHT22;48626;51.678;5.806;2022-07-17T11:44:39;30.60;33.10
62573;DHT22;48626;51.678;5.806;2022-07-17T11:47:06;30.40;36.00
62573;DHT22;48626;51.678;5.806;2022-07-17T11:49:34;30.70;36.70
62573;DHT22;48626;51.678;5.806;2022-07-17T11:52:11;30.70;33.40
62573;DHT22;48626;51.678;5.806;2022-07-17T11:54:48;31.20;37.70
62573;DHT22;48626;51.678;5.806;2022-07-17T11:57:14;31.70;39.30
62573;DHT22;48626;51.678;5.806;2022-07-17T11:59:40;32.00;38.00
62573;DHT22;48626;51.678;5.806;2022-07-17T12:02:19;32.30;39.50
62573;DHT22;48626;51.678;5.806;2022-07-17T12:04:57;32.40;34.80
62573;DHT22;48626;51.678;5.806;2022-07-17T12:07:38;32.60;35.80
62573;DHT22;48626;51.678;5.806;2022-07-17T12:10:18;32.70;32.80
62573;DHT22;48626;51.678;5.806;2022-07-17T12:12:57;32.60;31.80
62573;DHT22;48626;51.678;5.806;2022-07-17T12:18:02;32.20;29.70
62573;DHT22;48626;51.678;5.806;2022-07-17T12:20:43;31.80;30.40
62573;DHT22;48626;51.678;5.806;2022-07-17T12:23:09;32.20;34.40
62573;DHT22;48626;51.678;5.806;2022-07-17T12:25:50;32.40;34.50
62573;DHT22;48626;51.678;5.806;2022-07-17T12:28:16;32.40;31.80
62573;DHT22;48626;51.678;5.806;2022-07-17T12:30:41;32.70;29.70
62573;DHT22;48626;51.678;5.806;2022-07-17T12:33:07;32.70;31.20
62573;DHT22;48626;51.678;5.806;2022-07-17T12:35:32;33.10;37.10
62573;DHT22;48626;51.678;5.806;2022-07-17T12:37:58;33.20;34.20
62573;DHT22;48626;51.678;5.806;2022-07-17T12:40:24;32.80;31.20
62573;DHT22;48626;51.678;5.806;2022-07-17T12:42:49;31.90;29.00
62573;DHT22;48626;51.678;5.806;2022-07-17T12:45:15;31.60;29.30
62573;DHT22;48626;51.678;5.806;2022-07-17T12:47:40;31.60;31.80
62573;DHT22;48626;51.678;5.806;2022-07-17T12:50:06;31.60;29.80
62573;DHT22;48626;51.678;5.806;2022-07-17T12:52:33;32.00;31.30
62573;DHT22;48626;51.678;5.806;2022-07-17T12:54:58;32.40;31.80
62573;DHT22;48626;51.678;5.806;2022-07-17T12:57:24;33.10;34.80
62573;DHT22;48626;51.678;5.806;2022-07-17T12:59:50;33.70;30.40
62573;DHT22;48626;51.678;5.806;2022-07-17T13:02:15;34.10;33.80
62573;DHT22;48626;51.678;5.806;2022-07-17T13:04:41;34.10;28.40
62573;DHT22;48626;51.678;5.806;2022-07-17T13:07:07;34.10;31.20
62573;DHT22;48626;51.678;5.806;2022-07-17T13:09:33;34.50;29.40
62573;DHT22;48626;51.678;5.806;2022-07-17T13:12:01;34.40;27.60
62573;DHT22;48626;51.678;5.806;2022-07-17T13:14:26;34.40;27.60
62573;DHT22;48626;51.678;5.806;2022-07-17T13:16:52;34.70;29.00
62573;DHT22;48626;51.678;5.806;2022-07-17T13:19:18;35.10;30.00
62573;DHT22;48626;51.678;5.806;2022-07-17T13:21:44;35.70;31.60
62573;DHT22;48626;51.678;5.806;2022-07-17T13:24:09;35.60;27.40
62573;DHT22;48626;51.678;5.806;2022-07-17T13:26:35;36.10;31.10
62573;DHT22;48626;51.678;5.806;2022-07-17T13:29:01;36.60;33.40
62573;DHT22;48626;51.678;5.806;2022-07-17T13:31:26;36.80;26.50
62573;DHT22;48626;51.678;5.806;2022-07-17T13:33:52;37.10;29.50
62573;DHT22;48626;51.678;5.806;2022-07-17T13:36:18;37.20;30.60
62573;DHT22;48626;51.678;5.806;2022-07-17T13:38:43;36.80;25.30
62573;DHT22;48626;51.678;5.806;2022-07-17T13:41:09;36.20;24.10
62573;DHT22;48626;51.678;5.806;2022-07-17T13:43:35;36.50;26.80
62573;DHT22;48626;51.678;5.806;2022-07-17T13:46:01;36.50;26.30
62573;DHT22;48626;51.678;5.806;2022-07-17T13:48:27;36.60;24.70
62573;DHT22;48626;51.678;5.806;2022-07-17T13:50:52;36.80;25.20
62573;DHT22;48626;51.678;5.806;2022-07-17T13:53:18;36.70;22.70
62573;DHT22;48626;51.678;5.806;2022-07-17T13:55:44;36.60;26.60
62573;DHT22;48626;51.678;5.806;2022-07-17T13:58:09;36.90;27.30
62573;DHT22;48626;51.678;5.806;2022-07-17T14:00:36;37.40;26.00
62573;DHT22;48626;51.678;5.806;2022-07-17T14:03:01;38.00;24.50
62573;DHT22;48626;51.678;5.806;2022-07-17T14:05:27;37.70;25.50
62573;DHT22;48626;51.678;5.806;2022-07-17T14:07:53;37.70;24.10
62573;DHT22;48626;51.678;5.806;2022-07-17T14:10:19;37.50;27.30
62573;DHT22;48626;51.678;5.806;2022-07-17T14:12:44;37.10;25.70
62573;DHT22;48626;51.678;5.806;2022-07-17T14:15:10;36.90;25.80
62573;DHT22;48626;51.678;5.806;2022-07-17T14:17:36;36.70;25.30
62573;DHT22;48626;51.678;5.806;2022-07-17T14:20:03;36.70;25.50
62573;DHT22;48626;51.678;5.806;2022-07-17T14:22:29;36.10;22.90
62573;DHT22;48626;51.678;5.806;2022-07-17T14:24:54;35.50;24.60
62573;DHT22;48626;51.678;5.806;2022-07-17T14:27:20;35.60;26.50
62573;DHT22;48626;51.678;5.806;2022-07-17T14:29:47;36.10;26.00
62573;DHT22;48626;51.678;5.806;2022-07-17T14:32:13;36.40;25.60
62573;DHT22;48626;51.678;5.806;2022-07-17T14:34:38;37.00;27.30
62573;DHT22;48626;51.678;5.806;2022-07-17T14:37:04;37.20;25.50
62573;DHT22;48626;51.678;5.806;2022-07-17T14:39:32;37.60;28.10
62573;DHT22;48626;51.678;5.806;2022-07-17T14:41:58;37.40;22.70
62573;DHT22;48626;51.678;5.806;2022-07-17T14:44:24;37.10;25.20
62573;DHT22;48626;51.678;5.806;2022-07-17T14:46:50;37.30;26.70
62573;DHT22;48626;51.678;5.806;2022-07-17T14:49:16;37.50;26.70
62573;DHT22;48626;51.678;5.806;2022-07-17T14:51:42;37.90;25.90
62573;DHT22;48626;51.678;5.806;2022-07-17T14:54:07;37.70;23.20
62573;DHT22;48626;51.678;5.806;2022-07-17T14:56:33;36.90;23.70
62573;DHT22;48626;51.678;5.806;2022-07-17T14:58:58;36.40;24.90
62573;DHT22;48626;51.678;5.806;2022-07-17T15:01:24;36.00;22.50
62573;DHT22;48626;51.678;5.806;2022-07-17T15:03:50;36.20;23.10
62573;DHT22;48626;51.678;5.806;2022-07-17T15:06:15;36.00;24.10
62573;DHT22;48626;51.678;5.806;2022-07-17T15:08:41;35.70;24.60
62573;DHT22;48626;51.678;5.806;2022-07-17T15:11:07;35.30;27.00
62573;DHT22;48626;51.678;5.806;2022-07-17T15:13:32;35.00;26.80
62573;DHT22;48626;51.678;5.806;2022-07-17T15:15:58;34.50;27.70
62573;DHT22;48626;51.678;5.806;2022-07-17T15:18:24;34.20;25.10
62573;DHT22;48626;51.678;5.806;2022-07-17T15:20:49;34.40;28.30
62573;DHT22;48626;51.678;5.806;2022-07-17T15:23:15;35.30;27.00
62573;DHT22;48626;51.678;5.806;2022-07-17T15:25:41;35.90;24.60
62573;DHT22;48626;51.678;5.806;2022-07-17T15:28:06;36.30;25.70
62573;DHT22;48626;51.678;5.806;2022-07-17T15:30:32;36.50;27.60
62573;DHT22;48626;51.678;5.806;2022-07-17T15:32:58;36.20;26.80
62573;DHT22;48626;51.678;5.806;2022-07-17T15:35:23;35.80;24.60
62573;DHT22;48626;51.678;5.806;2022-07-17T15:37:52;35.40;28.10
62573;DHT22;48626;51.678;5.806;2022-07-17T15:40:19;34.80;26.30
62573;DHT22;48626;51.678;5.806;2022-07-17T15:42:46;34.30;25.70
62573;DHT22;48626;51.678;5.806;2022-07-17T15:45:11;33.50;24.60
62573;DHT22;48626;51.678;5.806;2022-07-17T15:47:37;33.20;25.30